Fruitland, NM (87416)

6:45 PM MDT on September 02, 2015 (GMT -0600)
Butler and 23rd Street | | Change Station
CLOSE
Current Station
Personal Weather Station
Location: Farmington, NM
Elevation: 5500 ft
Nearby Weather Stations

Elev 5500 ft 36.75 °N, 108.20 °W | Updated 25 seconds ago

Mostly Cloudy
Mostly Cloudy
76.0 °F
Feels Like 78 °F
N
2.0
Wind Variable Wind from West
Gusts 5.0 mph

Today
High -- | Low -- °F
--% Chance of Precip.
Yesterday
High -- | Low -- °F
Precip. -- in
6:45 AM 7:40 PM
Waning Gibbous, 75% visible
Pressure 29.94 in
Visibility 10.0 miles
Clouds Clear
Heat Index 78 °F
Dew Point 52 °F
Humidity 43%
Rainfall 0.00 in
Snow Depth Not available.
UV 2 out of 12
Pollen 8.60 out of 12
Air Quality Not available.
Flu Activity Not available.
METAR KFMN 022353Z 00000KT 10SM CLR 25/10 A3009 RMK AO2 SLP136 T02500100 10300 20244 58014
Pressure 29.94 in
Visibility 10.0 miles
Clouds Clear
Heat Index 78 °F
Dew Point 52 °F
Humidity 43%
Rainfall 0.00 in
Snow Depth Not available.
UV 2 out of 12
Pollen 8.60 out of 12
Air Quality Not available.
Flu Activity Not available.
METAR KFMN 022353Z 00000KT 10SM CLR 25/10 A3009 RMK AO2 SLP136 T02500100 10300 20244 58014

10-Day Weather Forecast

×

Almanac

Astronomy

Sep. 02, 2015 Rise Set
Actual Time
Civil Twilight
Nautical Twilight
Astronomical Twilight
Moon
Length of Visible Light
Length of Day
Tomorrow will be .
, % of the Moon is Illuminated

Today's Extremes

State Highs State Lows

Community

WunderPhotos

Upload Photos

1,851,855 photos uploaded!

WunderBlogs® & News

Nearby

Air Quality

  Air Quality AQ Index Pollutant
Not available.

Snow Depth

Station Depth Elevation

Earthquake Activity

City Distance Mag. Time & Date
Minimum magnitude displayed is 2.5.

Coastal Water Temperatures

Place Temperature

Stations

Nearby Weather Stations

Station Location Temp. Windchill Dew Point Humidity Wind Precip. Elev Updated Type